Portada
METAR-TAF:

METAR-TAF

Aeroports :

Mae Sot, Tailàndia

latitud: 16-40N, longitud: 098-33E, altitud: 196 m

Observació

L'informe es va fer fa 46 minuts, a les 03:00 UTC
Vent 2 kt amb direcció variable
Temperatura 26°C
Humitat 65%
Pressió 1016 hPa
Visibilitat 10 km o més
Escasses núvols a una alçada de 3000 ft

METAR: VTPM 210300Z VRB02KT 9999 FEW030 26/19 Q1016 NOSIG

Hora: 10:46 (03:46 UTC)

Pronòstic

L'informe es va fer fa 4 hores i 46 minuts, a les 23:00 UTC
Pronòstic vàlid del 21 a les 00 UTC al 21 a les 24 UTC
Vent 5 kt del Est
Visibilitat 10 km o més
Escasses núvols a una alçada de 2500 ft

TAF: VTPM 202300Z 2100/2124 09005KT 9999 FEW025

Observacions i pronòstics meteorològics de més de 4000 aeroports (METAR i TAF).

Les estacions disponibles són els punts grocs i vermells al mapa.

Posi el ratolí al punt desitjat per veure el nom de l'estació.

Feu clic per veure les observacions i els pronòstics meteorològics.

Per canviar el mapa: feu clic els botons verds amb una creu de color negre per apropar; al botó verd amb un guió per allunyar la imatge; o en les fletxes verdes per a mapes adjacents.


METAR-TAF: